createdAt,value
2024-04-22T00:00:34.634Z,0.00
2024-04-22T00:01:34.807Z,0.00
2024-04-22T00:02:34.587Z,0.00
2024-04-22T00:03:34.749Z,0.00
2024-04-22T00:04:34.580Z,0.00
2024-04-22T00:05:34.562Z,0.00
2024-04-22T00:06:34.505Z,0.00
2024-04-22T00:07:34.635Z,0.00
2024-04-22T00:08:35.236Z,0.00
2024-04-22T00:09:34.585Z,0.00
2024-04-22T00:10:34.640Z,0.00
2024-04-22T00:11:34.586Z,0.00
2024-04-22T00:12:34.475Z,0.00
2024-04-22T00:13:34.735Z,0.00
2024-04-22T00:14:34.573Z,0.00
2024-04-22T00:15:34.460Z,0.00
2024-04-22T00:16:34.485Z,0.00
2024-04-22T00:17:34.702Z,0.00
2024-04-22T00:18:34.414Z,0.00
2024-04-22T00:19:34.566Z,0.00
2024-04-22T00:20:34.556Z,0.00
2024-04-22T00:21:34.453Z,0.00
2024-04-22T00:22:35.399Z,0.00
2024-04-22T00:23:34.405Z,0.00
2024-04-22T00:24:34.316Z,0.00
2024-04-22T00:25:34.388Z,0.00
2024-04-22T00:26:34.335Z,0.00
2024-04-22T00:27:34.295Z,0.00
2024-04-22T00:28:35.245Z,0.00
2024-04-22T00:29:34.875Z,0.00
2024-04-22T00:30:34.311Z,0.00
2024-04-22T00:31:34.341Z,0.00
2024-04-22T00:32:34.298Z,0.00
2024-04-22T00:33:34.244Z,0.00
2024-04-22T00:34:34.291Z,0.00
2024-04-22T00:35:34.220Z,0.00
2024-04-22T00:36:34.193Z,0.00
2024-04-22T00:37:34.330Z,0.00
2024-04-22T00:38:34.203Z,0.00
2024-04-22T00:39:34.174Z,0.00
2024-04-22T00:40:34.296Z,0.00
2024-04-22T00:41:34.153Z,0.00
2024-04-22T00:42:34.134Z,0.00
2024-04-22T00:43:34.142Z,0.00
2024-04-22T00:44:34.145Z,0.00
2024-04-22T00:45:34.103Z,0.00
2024-04-22T00:46:34.126Z,0.00
2024-04-22T00:47:34.153Z,0.00
2024-04-22T00:48:34.078Z,0.00
2024-04-22T00:49:34.124Z,0.00
2024-04-22T00:50:34.810Z,0.00
2024-04-22T00:51:34.025Z,0.00
2024-04-22T00:52:34.036Z,0.00
2024-04-22T00:53:34.029Z,0.00
2024-04-22T00:54:33.991Z,0.00
2024-04-22T00:55:34.014Z,0.00
2024-04-22T00:56:34.727Z,0.00
2024-04-22T00:57:33.979Z,0.00
2024-04-22T00:58:34.010Z,0.00
2024-04-22T00:59:33.940Z,0.00
2024-04-22T01:00:33.954Z,0.00
2024-04-22T01:01:33.988Z,0.00
2024-04-22T01:02:33.942Z,0.00
2024-04-22T01:03:33.920Z,0.00
2024-04-22T01:04:34.067Z,0.00
2024-04-22T01:05:33.882Z,0.00
2024-04-22T01:06:33.865Z,0.00
2024-04-22T01:07:33.894Z,0.00
2024-04-22T01:08:33.855Z,0.00
2024-04-22T01:09:33.820Z,0.00
2024-04-22T01:10:33.933Z,0.00
2024-04-22T01:11:34.473Z,0.00
2024-04-22T01:12:33.808Z,0.00
2024-04-22T01:13:33.800Z,0.00
2024-04-22T01:14:33.788Z,0.00
2024-04-22T01:15:33.748Z,0.00
2024-04-22T01:16:33.755Z,0.00
2024-04-22T01:17:33.789Z,0.00
2024-04-22T01:18:33.728Z,0.00
2024-04-22T01:19:33.713Z,0.00
2024-04-22T01:20:33.718Z,0.00
2024-04-22T01:21:33.694Z,0.00
2024-04-22T01:22:34.536Z,0.00
2024-04-22T01:23:33.680Z,0.00
2024-04-22T01:24:33.657Z,0.00
2024-04-22T01:25:33.716Z,0.00
2024-04-22T01:26:33.629Z,0.00
2024-04-22T01:27:33.625Z,0.00
2024-04-22T01:28:33.768Z,0.00
2024-04-22T01:29:33.636Z,0.00
2024-04-22T01:30:33.610Z,0.00
2024-04-22T01:31:34.559Z,0.00
2024-04-22T01:32:33.692Z,0.00
2024-04-22T01:33:33.600Z,0.00
2024-04-22T01:34:33.578Z,0.00
2024-04-22T01:35:33.552Z,0.00
2024-04-22T01:36:33.549Z,0.00
2024-04-22T01:37:33.538Z,0.00
2024-04-22T01:38:33.496Z,0.00
2024-04-22T01:39:33.485Z,0.00
2024-04-22T01:40:33.521Z,0.00
2024-04-22T01:41:33.595Z,0.00
2024-04-22T01:42:33.462Z,0.00
2024-04-22T01:43:33.539Z,0.00
2024-04-22T01:44:33.443Z,0.00
2024-04-22T01:45:33.463Z,0.00
2024-04-22T01:46:33.532Z,0.00
2024-04-22T01:47:33.507Z,0.00
2024-04-22T01:48:33.402Z,0.00
2024-04-22T01:49:33.427Z,0.00
2024-04-22T01:50:33.371Z,0.00
2024-04-22T01:51:34.219Z,0.00
2024-04-22T01:52:33.424Z,0.00
2024-04-22T01:53:33.337Z,0.00
2024-04-22T01:54:33.334Z,0.00
2024-04-22T01:55:33.351Z,0.00
2024-04-22T01:56:33.297Z,0.00
2024-04-22T01:57:33.313Z,0.00
2024-04-22T01:58:33.312Z,0.00
2024-04-22T01:59:33.254Z,0.00
2024-04-22T02:00:33.267Z,0.00
2024-04-22T02:01:33.319Z,0.00
2024-04-22T02:02:33.279Z,0.00
2024-04-22T02:03:33.235Z,0.00
2024-04-22T02:04:33.269Z,0.00
2024-04-22T02:05:33.205Z,0.00
2024-04-22T02:06:33.198Z,0.00
2024-04-22T02:07:33.251Z,0.00
2024-04-22T02:08:33.168Z,0.00
2024-04-22T02:09:33.141Z,0.00
2024-04-22T02:10:33.179Z,0.00
2024-04-22T02:11:33.957Z,0.00
2024-04-22T02:12:33.984Z,0.00
2024-04-22T02:13:33.196Z,0.00
2024-04-22T02:14:33.107Z,0.00
2024-04-22T02:15:33.081Z,0.00
2024-04-22T02:16:33.172Z,0.00
2024-04-22T02:17:33.191Z,0.00
2024-04-22T02:18:33.054Z,0.00
2024-04-22T02:19:33.053Z,0.00
2024-04-22T02:20:33.051Z,0.00
2024-04-22T02:21:33.013Z,0.00
2024-04-22T02:22:34.068Z,0.00
2024-04-22T02:23:32.997Z,0.00
2024-04-22T02:24:32.997Z,0.00
2024-04-22T02:25:32.983Z,0.00
2024-04-22T02:26:32.979Z,0.00
2024-04-22T02:27:32.944Z,0.00
2024-04-22T02:28:33.000Z,0.00
2024-04-22T02:29:32.928Z,0.00
2024-04-22T02:30:32.912Z,0.00
2024-04-22T02:31:32.948Z,0.00
2024-04-22T02:32:34.006Z,0.00
2024-04-22T02:33:33.734Z,0.00
2024-04-22T02:34:32.916Z,0.00
2024-04-22T02:35:32.877Z,0.00
2024-04-22T02:36:32.851Z,0.00
2024-04-22T02:37:32.874Z,0.00
2024-04-22T02:38:32.855Z,0.00
2024-04-22T02:39:32.835Z,0.00
2024-04-22T02:40:32.881Z,0.00
2024-04-22T02:41:32.838Z,0.00
2024-04-22T02:42:32.808Z,0.00
2024-04-22T02:43:32.894Z,0.00
2024-04-22T02:44:32.770Z,0.00
2024-04-22T02:45:32.781Z,0.00
2024-04-22T02:46:32.795Z,0.00
2024-04-22T02:47:32.828Z,0.00
2024-04-22T02:48:32.721Z,0.00
2024-04-22T02:49:32.778Z,0.00
2024-04-22T02:50:32.707Z,0.00
2024-04-22T02:51:32.775Z,0.00
2024-04-22T02:52:33.572Z,0.00
2024-04-22T02:53:32.681Z,0.00
2024-04-22T02:54:32.721Z,0.00
2024-04-22T02:55:32.739Z,0.00
2024-04-22T02:56:32.636Z,0.00
2024-04-22T02:57:32.652Z,0.00
2024-04-22T02:58:32.666Z,0.00
2024-04-22T02:59:32.611Z,0.00
2024-04-22T03:00:32.592Z,0.00
2024-04-22T03:01:32.580Z,0.00
2024-04-22T03:02:32.627Z,0.00
2024-04-22T03:03:32.599Z,0.00
2024-04-22T03:04:32.582Z,0.00
2024-04-22T03:05:32.547Z,0.00
2024-04-22T03:06:32.528Z,0.00
2024-04-22T03:07:32.581Z,0.00
2024-04-22T03:08:32.499Z,0.00
2024-04-22T03:09:32.511Z,0.00
2024-04-22T03:10:32.506Z,0.00
2024-04-22T03:11:32.534Z,0.00
2024-04-22T03:12:32.942Z,0.00
2024-04-22T03:13:33.302Z,0.00
2024-04-22T03:14:32.963Z,0.00
2024-04-22T03:15:32.434Z,0.00
2024-04-22T03:16:33.302Z,0.00
2024-04-22T03:17:32.511Z,0.00
2024-04-22T03:18:32.390Z,0.00
2024-04-22T03:19:32.396Z,0.00
2024-04-22T03:20:32.367Z,0.00
2024-04-22T03:21:32.396Z,0.00
2024-04-22T03:22:33.175Z,0.00
2024-04-22T03:23:32.348Z,0.00
2024-04-22T03:24:32.325Z,0.00
2024-04-22T03:25:32.393Z,0.00
2024-04-22T03:26:32.309Z,0.00
2024-04-22T03:27:32.287Z,0.00
2024-04-22T03:28:32.294Z,0.00
2024-04-22T03:29:32.261Z,0.00
2024-04-22T03:30:32.256Z,0.00
2024-04-22T03:31:32.304Z,0.00
2024-04-22T03:32:32.326Z,0.00
2024-04-22T03:33:33.128Z,0.00
2024-04-22T03:34:33.066Z,0.00
2024-04-22T03:35:32.210Z,0.00
2024-04-22T03:36:32.234Z,0.00
2024-04-22T03:37:32.206Z,0.00
2024-04-22T03:38:32.388Z,0.00
2024-04-22T03:39:32.228Z,0.00
2024-04-22T03:40:32.142Z,0.00
2024-04-22T03:41:32.129Z,0.00
2024-04-22T03:42:32.119Z,0.00
2024-04-22T03:43:32.154Z,0.00
2024-04-22T03:44:32.133Z,0.00
2024-04-22T03:45:32.197Z,0.00
2024-04-22T03:46:32.095Z,0.00
2024-04-22T03:47:32.427Z,0.00
2024-04-22T03:48:32.057Z,0.00
2024-04-22T03:49:32.095Z,0.00
2024-04-22T03:50:32.028Z,4.00
2024-04-22T03:51:32.017Z,4.00
2024-04-22T03:52:32.921Z,0.00
2024-04-22T03:53:32.994Z,0.00
2024-04-22T03:54:31.997Z,4.00
2024-04-22T03:55:32.044Z,4.00
2024-04-22T03:56:31.992Z,4.00
2024-04-22T03:57:31.966Z,4.00
2024-04-22T03:58:31.996Z,4.00
2024-04-22T03:59:31.928Z,8.00
2024-04-22T04:00:31.949Z,4.00
2024-04-22T04:01:31.972Z,8.00
2024-04-22T04:02:31.897Z,8.00
2024-04-22T04:03:31.953Z,8.00
2024-04-22T04:04:32.829Z,16.00
2024-04-22T04:05:32.062Z,16.00
2024-04-22T04:06:32.613Z,16.00
2024-04-22T04:07:31.895Z,16.00
2024-04-22T04:08:31.841Z,24.00
2024-04-22T04:09:31.833Z,28.00
2024-04-22T04:10:31.831Z,28.00
2024-04-22T04:11:31.834Z,36.00
2024-04-22T04:12:31.809Z,36.00
2024-04-22T04:13:31.838Z,40.00
2024-04-22T04:14:32.513Z,44.00
2024-04-22T04:15:32.687Z,48.00
2024-04-22T04:16:31.829Z,56.00
2024-04-22T04:17:31.810Z,60.00
2024-04-22T04:18:31.730Z,64.00
2024-04-22T04:19:31.841Z,72.00
2024-04-22T04:20:31.702Z,76.00
2024-04-22T04:21:31.711Z,80.00
2024-04-22T04:22:32.563Z,88.00
2024-04-22T04:23:31.670Z,96.00
2024-04-22T04:24:31.707Z,104.00
2024-04-22T04:25:31.675Z,112.00
2024-04-22T04:26:31.634Z,120.00
2024-04-22T04:27:31.612Z,132.00
2024-04-22T04:28:31.663Z,144.00
2024-04-22T04:29:31.613Z,152.00
2024-04-22T04:30:31.576Z,160.00
2024-04-22T04:31:32.603Z,168.00
2024-04-22T04:32:31.736Z,180.00
2024-04-22T04:33:31.562Z,188.00
2024-04-22T04:34:31.577Z,196.00
2024-04-22T04:35:31.563Z,204.00
2024-04-22T04:36:31.549Z,212.00
2024-04-22T04:37:31.591Z,224.00
2024-04-22T04:38:31.506Z,228.00
2024-04-22T04:39:31.495Z,232.00
2024-04-22T04:40:31.537Z,236.00
2024-04-22T04:41:31.475Z,236.00
2024-04-22T04:42:31.912Z,232.00
2024-04-22T04:43:31.990Z,224.00
2024-04-22T04:44:31.883Z,220.00
2024-04-22T04:45:31.413Z,212.00
2024-04-22T04:46:31.507Z,204.00
2024-04-22T04:47:31.486Z,204.00
2024-04-22T04:48:32.173Z,208.00
2024-04-22T04:49:31.481Z,220.00
2024-04-22T04:50:31.389Z,232.00
2024-04-22T04:51:31.351Z,256.00
2024-04-22T04:52:31.412Z,284.00
2024-04-22T04:53:31.350Z,316.00
2024-04-22T04:54:31.344Z,348.00
2024-04-22T04:55:32.175Z,364.00
2024-04-22T04:56:32.064Z,376.00
2024-04-22T04:57:31.869Z,376.00
2024-04-22T04:58:31.367Z,388.00
2024-04-22T04:59:31.265Z,408.00
2024-04-22T05:00:31.333Z,420.00
2024-04-22T05:01:31.475Z,432.00
2024-04-22T05:02:31.329Z,448.00
2024-04-22T05:03:31.361Z,448.00
2024-04-22T05:04:31.323Z,456.00
2024-04-22T05:05:31.300Z,440.00
2024-04-22T05:06:31.298Z,440.00
2024-04-22T05:07:31.315Z,440.00
2024-04-22T05:08:31.262Z,424.00
2024-04-22T05:09:31.470Z,408.00
2024-04-22T05:10:31.181Z,400.00
2024-04-22T05:11:31.928Z,408.00
2024-04-22T05:12:31.134Z,424.00
2024-04-22T05:13:31.267Z,448.00
2024-04-22T05:14:31.120Z,480.00
2024-04-22T05:15:31.126Z,520.00
2024-04-22T05:16:31.223Z,516.00
2024-04-22T05:17:31.188Z,528.00
2024-04-22T05:18:31.167Z,548.00
2024-04-22T05:19:31.067Z,576.00
2024-04-22T05:20:31.075Z,624.00
2024-04-22T05:21:31.048Z,660.00
2024-04-22T05:22:31.056Z,684.00
2024-04-22T05:23:31.045Z,684.00
2024-04-22T05:24:30.982Z,708.00
2024-04-22T05:25:31.005Z,744.00
2024-04-22T05:26:30.968Z,780.00
2024-04-22T05:27:33.092Z,824.00
2024-04-22T05:28:30.979Z,908.00
2024-04-22T05:29:30.953Z,1012.00
2024-04-22T05:30:30.918Z,1116.00
2024-04-22T05:31:30.974Z,1224.00
2024-04-22T05:32:30.962Z,1324.00
2024-04-22T05:33:31.350Z,1404.00
2024-04-22T05:34:30.968Z,1476.00
2024-04-22T05:35:30.883Z,1504.00
2024-04-22T05:36:31.818Z,1512.00
2024-04-22T05:37:30.943Z,1520.00
2024-04-22T05:38:30.876Z,1540.00
2024-04-22T05:39:31.772Z,1560.00
2024-04-22T05:40:30.938Z,1584.00
2024-04-22T05:41:30.837Z,1604.00
2024-04-22T05:42:30.949Z,1612.00
2024-04-22T05:43:30.877Z,1632.00
2024-04-22T05:44:30.813Z,1660.00
2024-04-22T05:45:30.777Z,1672.00
2024-04-22T05:46:30.784Z,1640.00
2024-04-22T05:47:30.805Z,1580.00
2024-04-22T05:48:30.917Z,1592.00
2024-04-22T05:49:30.748Z,1668.00
2024-04-22T05:50:30.711Z,1788.00
2024-04-22T05:51:30.717Z,1884.00
2024-04-22T05:52:30.723Z,1956.00
2024-04-22T05:53:30.695Z,1992.00
2024-04-22T05:54:30.661Z,2016.00
2024-04-22T05:55:30.733Z,2020.00
2024-04-22T05:56:30.655Z,2076.00
2024-04-22T05:57:31.450Z,2144.00
2024-04-22T05:58:31.372Z,2216.00
2024-04-22T05:59:30.653Z,2284.00
2024-04-22T06:00:30.595Z,2360.00
2024-04-22T06:01:30.631Z,2448.00
2024-04-22T06:02:30.622Z,2500.00
2024-04-22T06:03:30.670Z,2496.00
2024-04-22T06:04:30.579Z,2464.00
2024-04-22T06:05:30.552Z,2460.00
2024-04-22T06:06:30.608Z,2508.00
2024-04-22T06:07:30.595Z,2560.00
2024-04-22T06:08:30.594Z,2596.00
2024-04-22T06:09:30.743Z,2584.00
2024-04-22T06:10:30.551Z,2584.00
2024-04-22T06:11:30.537Z,2592.00
2024-04-22T06:12:30.519Z,2604.00
2024-04-22T06:13:30.542Z,2600.00
2024-04-22T06:14:30.503Z,2596.00
2024-04-22T06:15:30.468Z,2584.00
2024-04-22T06:16:35.951Z,2596.00
2024-04-22T06:17:37.334Z,2620.00
2024-04-22T06:18:35.334Z,2652.00
2024-04-22T06:19:31.115Z,2684.00
2024-04-22T06:20:30.405Z,2704.00
2024-04-22T06:21:30.386Z,2740.00
2024-04-22T06:22:31.091Z,2764.00
2024-04-22T06:23:30.356Z,2804.00
2024-04-22T06:24:30.353Z,2836.00
2024-04-22T06:25:30.376Z,2856.00
2024-04-22T06:26:30.317Z,2872.00
2024-04-22T06:27:30.347Z,2868.00
2024-04-22T06:28:30.328Z,2844.00
2024-04-22T06:29:30.292Z,2808.00
2024-04-22T06:30:30.273Z,2772.00
2024-04-22T06:31:30.325Z,2732.00
2024-04-22T06:32:30.447Z,2712.00
2024-04-22T06:33:30.235Z,2712.00
2024-04-22T06:34:30.250Z,2728.00
2024-04-22T06:35:30.257Z,2736.00
2024-04-22T06:36:30.194Z,2752.00
2024-04-22T06:37:31.106Z,2756.00
2024-04-22T06:38:30.200Z,2760.00
2024-04-22T06:39:30.193Z,2760.00
2024-04-22T06:40:30.171Z,2760.00
2024-04-22T06:41:30.143Z,2760.00
2024-04-22T06:42:30.123Z,2764.00
2024-04-22T06:43:30.137Z,2772.00
2024-04-22T06:44:30.116Z,2780.00
2024-04-22T06:45:30.113Z,2792.00
2024-04-22T06:46:30.256Z,2804.00
2024-04-22T06:47:30.163Z,2812.00
2024-04-22T06:48:30.067Z,2820.00
2024-04-22T06:49:30.398Z,2828.00
2024-04-22T06:50:30.054Z,2832.00
2024-04-22T06:51:30.051Z,2836.00
2024-04-22T06:52:30.042Z,2836.00
2024-04-22T06:53:30.048Z,2836.00
2024-04-22T06:54:29.993Z,2836.00
2024-04-22T06:55:30.020Z,2832.00
2024-04-22T06:56:29.981Z,2824.00
2024-04-22T06:57:29.984Z,2816.00
2024-04-22T06:58:30.901Z,2812.00
2024-04-22T06:59:29.976Z,2792.00
2024-04-22T07:00:29.999Z,2744.00
2024-04-22T07:01:35.626Z,2684.00
2024-04-22T07:02:30.986Z,2616.00
2024-04-22T07:03:30.046Z,2556.00
2024-04-22T07:04:29.955Z,2500.00
2024-04-22T07:05:29.892Z,2436.00
2024-04-22T07:06:29.874Z,2368.00
2024-04-22T07:07:29.894Z,2296.00
2024-04-22T07:08:30.110Z,2220.00
2024-04-22T07:09:29.841Z,2140.00
2024-04-22T07:10:29.876Z,2064.00
2024-04-22T07:11:29.825Z,2008.00
2024-04-22T07:12:29.838Z,1952.00
2024-04-22T07:13:29.823Z,1916.00
2024-04-22T07:14:29.782Z,1888.00
2024-04-22T07:15:29.777Z,1880.00
2024-04-22T07:16:29.798Z,1892.00
2024-04-22T07:17:29.942Z,1908.00
2024-04-22T07:18:29.789Z,1920.00
2024-04-22T07:19:30.660Z,1920.00
2024-04-22T07:20:29.767Z,1920.00
2024-04-22T07:21:29.715Z,1920.00
2024-04-22T07:22:29.959Z,1900.00
2024-04-22T07:23:29.703Z,1892.00
2024-04-22T07:24:29.685Z,1884.00
2024-04-22T07:25:29.737Z,1876.00
2024-04-22T07:26:29.657Z,1880.00
2024-04-22T07:27:29.646Z,1888.00
2024-04-22T07:28:29.658Z,1924.00
2024-04-22T07:29:29.643Z,1920.00
2024-04-22T07:30:29.663Z,1892.00
2024-04-22T07:31:29.660Z,1768.00
2024-04-22T07:32:29.708Z,1880.00
2024-04-22T07:33:31.634Z,1848.00
2024-04-22T07:34:29.582Z,1812.00
2024-04-22T07:35:29.590Z,1832.00
2024-04-22T07:36:29.536Z,2044.00
2024-04-22T07:37:29.568Z,2024.00
2024-04-22T07:38:30.089Z,1944.00
2024-04-22T07:39:30.343Z,2016.00
2024-04-22T07:40:29.600Z,1828.00
2024-04-22T07:41:29.512Z,1776.00
2024-04-22T07:42:29.466Z,1720.00
2024-04-22T07:43:29.490Z,1900.00
2024-04-22T07:44:29.471Z,2116.00
2024-04-22T07:45:31.756Z,1664.00
2024-04-22T07:46:29.450Z,1520.00
2024-04-22T07:47:29.506Z,1732.00
2024-04-22T07:48:29.413Z,1908.00
2024-04-22T07:49:29.482Z,1568.00
2024-04-22T07:50:30.216Z,1480.00
2024-04-22T07:51:29.378Z,1516.00
2024-04-22T07:52:29.412Z,1528.00
2024-04-22T07:53:29.354Z,1584.00
2024-04-22T07:54:29.398Z,1768.00
2024-04-22T07:55:29.406Z,1608.00
2024-04-22T07:56:29.333Z,1492.00
2024-04-22T07:57:29.326Z,1408.00
2024-04-22T07:58:29.369Z,1368.00
2024-04-22T07:59:29.325Z,1456.00
2024-04-22T08:00:29.272Z,1328.00
2024-04-22T08:01:29.282Z,1324.00
2024-04-22T08:02:31.121Z,1328.00
2024-04-22T08:03:29.242Z,1352.00
2024-04-22T08:04:29.322Z,1392.00
2024-04-22T08:05:29.480Z,1428.00
2024-04-22T08:06:29.204Z,1580.00
2024-04-22T08:07:29.261Z,1528.00
2024-04-22T08:08:29.174Z,1556.00
2024-04-22T08:09:29.165Z,2008.00
2024-04-22T08:10:29.389Z,1796.00
2024-04-22T08:11:29.207Z,1680.00
2024-04-22T08:12:29.168Z,1424.00
2024-04-22T08:13:29.183Z,1428.00
2024-04-22T08:14:29.143Z,1612.00
2024-04-22T08:15:29.120Z,1752.00
2024-04-22T08:16:29.219Z,1780.00
2024-04-22T08:17:29.190Z,1616.00
2024-04-22T08:18:29.219Z,1536.00
2024-04-22T08:19:29.894Z,1392.00
2024-04-22T08:20:29.130Z,1424.00
2024-04-22T08:21:29.166Z,1424.00
2024-04-22T08:22:29.176Z,1400.00
2024-04-22T08:23:29.008Z,1380.00
2024-04-22T08:24:29.032Z,1548.00
2024-04-22T08:25:29.047Z,1704.00
2024-04-22T08:26:28.957Z,1600.00
2024-04-22T08:27:29.014Z,1468.00
2024-04-22T08:28:28.968Z,1544.00
2024-04-22T08:29:28.945Z,1604.00
2024-04-22T08:30:28.929Z,1836.00
2024-04-22T08:31:28.980Z,2208.00
2024-04-22T08:32:29.011Z,2752.00
2024-04-22T08:33:29.035Z,2932.00
2024-04-22T08:34:28.914Z,3632.00
2024-04-22T08:35:28.926Z,3728.00
2024-04-22T08:36:28.853Z,4124.00
2024-04-22T08:37:28.872Z,3236.00
2024-04-22T08:38:28.848Z,2756.00
2024-04-22T08:39:28.912Z,2676.00
2024-04-22T08:40:28.979Z,2432.00
2024-04-22T08:41:29.666Z,2216.00
2024-04-22T08:42:28.790Z,2368.00
2024-04-22T08:43:28.787Z,2868.00
2024-04-22T08:44:28.794Z,3800.00
2024-04-22T08:45:28.779Z,4532.00
2024-04-22T08:46:28.839Z,4032.00
2024-04-22T08:47:28.833Z,3280.00
2024-04-22T08:48:29.756Z,2668.00
2024-04-22T08:49:28.734Z,3104.00
2024-04-22T08:50:28.695Z,3232.00
2024-04-22T08:51:28.735Z,3624.00
2024-04-22T08:52:33.444Z,4108.00
2024-04-22T08:53:29.706Z,5080.00
2024-04-22T08:54:28.659Z,4740.00
2024-04-22T08:55:28.737Z,4228.00
2024-04-22T08:56:28.698Z,3200.00
2024-04-22T08:57:28.666Z,2668.00
2024-04-22T08:58:28.634Z,2304.00
2024-04-22T08:59:37.403Z,2596.00
2024-04-22T09:00:29.740Z,2244.00
2024-04-22T09:01:29.030Z,2596.00
2024-04-22T09:02:28.604Z,3248.00
2024-04-22T09:03:28.672Z,4160.00
2024-04-22T09:04:28.675Z,5020.00
2024-04-22T09:05:28.747Z,5544.00
2024-04-22T09:06:28.565Z,5552.00
2024-04-22T09:07:28.871Z,4580.00
2024-04-22T09:08:28.577Z,4204.00
2024-04-22T09:09:40.505Z,3724.00
2024-04-22T09:11:05.000Z,3840.00
2024-04-22T09:11:57.264Z,4588.00
2024-04-22T09:12:29.682Z,4732.00
2024-04-22T09:13:28.814Z,3864.00
2024-04-22T09:14:28.555Z,4036.00
2024-04-22T09:15:28.477Z,5244.00
2024-04-22T09:16:28.525Z,6016.00
2024-04-22T09:17:28.711Z,5676.00
2024-04-22T09:18:30.130Z,5948.00
2024-04-22T09:19:28.430Z,7028.00
2024-04-22T09:20:28.484Z,7300.00
2024-04-22T09:21:29.198Z,6392.00
2024-04-22T09:22:28.388Z,5980.00
2024-04-22T09:23:28.380Z,5536.00
2024-04-22T09:24:28.321Z,5024.00
2024-04-22T09:25:28.389Z,5140.00
2024-04-22T09:26:28.340Z,5660.00
2024-04-22T09:27:28.370Z,6040.00
2024-04-22T09:28:28.318Z,5588.00
2024-04-22T09:29:28.264Z,5388.00
2024-04-22T09:30:28.317Z,4856.00
2024-04-22T09:31:28.343Z,4564.00
2024-04-22T09:32:28.476Z,4520.00
2024-04-22T09:33:28.283Z,4760.00
2024-04-22T09:34:28.513Z,5316.00
2024-04-22T09:35:28.233Z,4416.00
2024-04-22T09:36:28.271Z,3572.00
2024-04-22T09:37:28.210Z,3736.00
2024-04-22T09:38:39.018Z,3436.00
2024-04-22T09:39:29.180Z,3992.00
2024-04-22T09:40:28.281Z,4692.00
2024-04-22T09:41:29.091Z,4200.00
2024-04-22T09:42:28.147Z,3792.00
2024-04-22T09:43:28.111Z,4484.00
2024-04-22T09:44:28.114Z,4776.00
2024-04-22T09:45:28.110Z,4140.00
2024-04-22T09:46:28.243Z,4032.00
2024-04-22T09:47:28.430Z,3172.00
2024-04-22T09:48:28.113Z,2528.00
2024-04-22T09:49:30.166Z,2308.00
2024-04-22T09:50:28.185Z,2272.00
2024-04-22T09:51:28.059Z,2388.00
2024-04-22T09:52:28.056Z,2528.00
2024-04-22T09:53:28.038Z,2720.00
2024-04-22T09:54:27.997Z,3372.00
2024-04-22T09:55:28.005Z,3328.00
2024-04-22T09:56:28.214Z,3496.00
2024-04-22T09:57:27.938Z,3260.00
2024-04-22T09:58:28.019Z,3084.00
2024-04-22T09:59:28.022Z,3148.00
2024-04-22T10:00:28.224Z,3256.00
2024-04-22T10:01:28.085Z,3696.00
2024-04-22T10:02:28.855Z,3620.00
2024-04-22T10:03:28.377Z,4028.00
2024-04-22T10:04:28.202Z,3668.00
2024-04-22T10:05:27.968Z,3780.00
2024-04-22T10:06:28.783Z,3996.00
2024-04-22T10:07:27.930Z,4304.00
2024-04-22T10:08:27.851Z,4960.00
2024-04-22T10:09:27.844Z,5016.00
2024-04-22T10:10:27.866Z,4636.00
2024-04-22T10:11:27.871Z,4724.00
2024-04-22T10:12:28.066Z,4868.00
2024-04-22T10:13:27.828Z,4916.00
2024-04-22T10:14:27.833Z,5420.00
2024-04-22T10:15:27.753Z,4996.00
2024-04-22T10:16:27.731Z,5596.00
2024-04-22T10:17:27.743Z,6008.00
2024-04-22T10:18:27.813Z,6376.00
2024-04-22T10:19:28.012Z,6636.00
2024-04-22T10:20:27.748Z,6400.00
2024-04-22T10:21:27.697Z,6172.00
2024-04-22T10:22:28.443Z,5856.00
2024-04-22T10:23:28.654Z,5356.00
2024-04-22T10:24:27.670Z,5704.00
2024-04-22T10:25:28.587Z,5672.00
2024-04-22T10:26:27.641Z,5284.00
2024-04-22T10:27:27.638Z,4620.00
2024-04-22T10:28:27.632Z,4440.00
2024-04-22T10:29:27.616Z,4460.00
2024-04-22T10:30:27.590Z,4412.00
2024-04-22T10:31:27.611Z,4308.00
2024-04-22T10:32:27.641Z,3696.00
2024-04-22T10:33:27.600Z,3344.00
2024-04-22T10:34:27.539Z,3420.00
2024-04-22T10:35:27.529Z,3324.00
2024-04-22T10:36:27.526Z,2856.00
2024-04-22T10:37:27.547Z,2984.00
2024-04-22T10:38:27.502Z,3116.00
2024-04-22T10:39:27.539Z,3520.00
2024-04-22T10:40:27.490Z,3500.00
2024-04-22T10:41:28.022Z,3588.00
2024-04-22T10:42:28.301Z,3304.00
2024-04-22T10:43:28.203Z,2924.00
2024-04-22T10:44:27.453Z,2844.00
2024-04-22T10:45:27.465Z,2932.00
2024-04-22T10:46:27.443Z,3000.00
2024-04-22T10:47:27.496Z,2960.00
2024-04-22T10:48:27.475Z,2880.00
2024-04-22T10:49:27.527Z,2968.00
2024-04-22T10:50:27.510Z,3040.00
2024-04-22T10:51:27.722Z,3124.00
2024-04-22T10:52:28.075Z,3160.00
2024-04-22T10:53:27.317Z,3252.00
2024-04-22T10:54:27.346Z,3348.00
2024-04-22T10:55:27.359Z,3396.00
2024-04-22T10:56:27.328Z,3452.00
2024-04-22T10:57:27.281Z,3568.00
2024-04-22T10:58:27.299Z,3708.00
2024-04-22T10:59:27.267Z,3860.00
2024-04-22T11:00:27.288Z,4096.00
2024-04-22T11:01:27.375Z,4460.00
2024-04-22T11:02:27.381Z,4872.00
2024-04-22T11:03:28.097Z,5120.00
2024-04-22T11:04:27.287Z,5344.00
2024-04-22T11:05:27.746Z,5408.00
2024-04-22T11:06:27.194Z,5748.00
2024-04-22T11:07:27.292Z,6088.00
2024-04-22T11:08:27.164Z,6628.00
2024-04-22T11:09:27.154Z,6860.00
2024-04-22T11:10:34.717Z,7188.00
2024-04-22T11:11:28.185Z,7160.00
2024-04-22T11:12:29.283Z,7276.00
2024-04-22T11:13:27.156Z,7584.00
2024-04-22T11:14:27.126Z,8592.00
2024-04-22T11:15:27.082Z,8028.00
2024-04-22T11:16:27.151Z,6988.00
2024-04-22T11:17:27.119Z,6836.00
2024-04-22T11:18:27.072Z,6888.00
2024-04-22T11:19:27.101Z,5912.00
2024-04-22T11:20:27.083Z,5388.00
2024-04-22T11:21:27.003Z,5076.00
2024-04-22T11:22:27.078Z,5416.00
2024-04-22T11:23:27.039Z,5396.00
2024-04-22T11:24:26.998Z,5408.00
2024-04-22T11:25:27.269Z,5492.00
2024-04-22T11:26:26.953Z,5720.00
2024-04-22T11:27:26.950Z,5456.00
2024-04-22T11:28:27.034Z,5732.00
2024-04-22T11:29:26.950Z,5576.00
2024-04-22T11:30:26.919Z,6096.00
2024-04-22T11:31:26.993Z,7252.00
2024-04-22T11:32:26.970Z,7140.00
2024-04-22T11:33:26.927Z,6756.00
2024-04-22T11:34:26.942Z,6428.00
2024-04-22T11:35:26.842Z,6060.00
2024-04-22T11:36:26.905Z,5876.00
2024-04-22T11:37:26.906Z,5656.00
2024-04-22T11:38:26.844Z,5796.00
2024-04-22T11:39:26.861Z,6128.00
2024-04-22T11:40:26.841Z,6328.00
2024-04-22T11:41:26.784Z,6504.00
2024-04-22T11:42:26.772Z,6856.00
2024-04-22T11:43:26.787Z,7232.00
2024-04-22T11:44:26.818Z,6884.00
2024-04-22T11:45:26.778Z,6428.00
2024-04-22T11:46:26.809Z,6268.00
2024-04-22T11:47:26.742Z,6212.00
2024-04-22T11:48:26.710Z,6440.00
2024-04-22T11:49:26.725Z,6456.00
2024-04-22T11:50:26.712Z,5900.00
2024-04-22T11:51:26.675Z,5564.00
2024-04-22T11:52:26.686Z,5476.00
2024-04-22T11:53:26.709Z,5556.00
2024-04-22T11:54:26.646Z,5456.00
2024-04-22T11:55:26.655Z,5320.00
2024-04-22T11:56:26.671Z,5096.00
2024-04-22T11:57:26.621Z,5096.00
2024-04-22T11:58:26.933Z,5188.00
2024-04-22T11:59:26.592Z,5196.00
2024-04-22T12:00:26.563Z,5356.00
2024-04-22T12:01:26.569Z,5340.00
2024-04-22T12:02:26.576Z,5084.00
2024-04-22T12:03:26.523Z,5092.00
2024-04-22T12:04:27.498Z,4884.00
2024-04-22T12:05:26.588Z,4944.00
2024-04-22T12:06:26.527Z,5024.00
2024-04-22T12:07:26.809Z,5120.00
2024-04-22T12:08:26.482Z,5268.00
2024-04-22T12:09:26.472Z,5580.00
2024-04-22T12:10:26.458Z,6144.00
2024-04-22T12:11:26.541Z,6348.00
2024-04-22T12:12:27.329Z,5932.00
2024-04-22T12:13:26.467Z,5868.00
2024-04-22T12:14:26.404Z,5896.00
2024-04-22T12:15:26.400Z,5772.00
2024-04-22T12:16:26.453Z,5276.00
2024-04-22T12:17:26.453Z,4696.00
2024-04-22T12:18:26.363Z,4444.00
2024-04-22T12:19:26.381Z,4624.00
2024-04-22T12:20:26.400Z,4504.00
2024-04-22T12:21:26.321Z,4620.00
2024-04-22T12:22:26.352Z,4804.00
2024-04-22T12:23:26.315Z,5064.00
2024-04-22T12:24:26.288Z,5356.00
2024-04-22T12:25:27.166Z,5440.00
2024-04-22T12:26:27.014Z,5456.00
2024-04-22T12:27:26.250Z,5420.00
2024-04-22T12:28:26.303Z,5436.00
2024-04-22T12:29:26.302Z,5468.00
2024-04-22T12:30:26.221Z,5664.00
2024-04-22T12:31:26.218Z,5852.00